AirNav   Everest Fuels
 
 831 users online  

2I3 Rough River State Park Airport
Falls of Rough, Kentucky, USA

GOING TO FALLS OF ROUGH?


FAA INFORMATION EFFECTIVE 05 DECEMBER 2019

Location

FAA Identifier: 2I3
Lat/Long: 37-36-35.3000N 086-30-25.8000W
37-36.588333N 086-30.430000W
37.6098056,-86.5071667
(estimated)
Elevation: 577 ft. / 175.9 m (surveyed)
Variation: 01W (1985)
From city: 3 miles NE of FALLS-OF-ROUGH, KY
Time zone: UTC -6 (UTC -5 during Daylight Saving Time)
Zip code: 40119

Airport Operations

Airport use: Open to the public
Activation date: 05/1963
Control tower: no
ARTCC: INDIANAPOLIS CENTER
FSS: LOUISVILLE FLIGHT SERVICE STATION
NOTAMs facility: LOU (NOTAM-D service available)
Attendance: UNATNDD
Wind indicator: lighted
Segmented circle: yes
Lights: ACTVT MIRL RY 2/20; REIL RY 2 & 20 - CTAF. PAPI RY 2 & 20 OPER CONTINUOUSLY.
Beacon: white-green (lighted land airport)
Operates sunset to sunrise.

Airport Communications

CTAF/UNICOM: 122.8
WX AWOS-3PT at JQD (19 nm SW): 132.1 (270-298-7936)

Nearby radio navigation aids

VOR radial/distance  VOR name  Freq  Var
MYSr217/(21.1)MYSTIC VOR108.2001W
FTKr236/31.0FORT KNOX VOR/DME109.6001W
OWBr108/32.3OWENSBORO VOR/DME108.6004W
CCTr070/38.5CENTRAL CITY VORTAC109.8001W
EWOr267/39.5NEW HOPE VOR/DME110.8001E

 
NDB name  Hdg/Dist  Freq  Var  ID
GODMAN233/32.739603WGOI --. --- ..

Airport Services

Parking: tiedowns
Airframe service: NONE
Powerplant service: NONE
Bottled oxygen: NONE
Bulk oxygen: NONE

Runway Information

Runway 2/20

Dimensions: 3200 x 75 ft. / 975 x 23 m
Surface: asphalt, in excellent condition
Weight bearing capacity: 
Single wheel: 8.0
Runway edge lights: medium intensity
RUNWAY 2  RUNWAY 20
Latitude: 37-36.336833N37-36.841000N
Longitude: 086-30.527167W086-30.332667W
Traffic pattern: leftleft
Markings: basic, in good conditionbasic, in good condition
Visual slope indicator: 2-light PAPI on left (4.00 degrees glide path)4-light PAPI on left (5.00 degrees glide path)
Runway end identifier lights: yesyes
Obstructions: 21 ft. trees, 616 ft. from runway, 60 ft. right of centerline, 19:1 slope to clear271 ft. tree, 4744 ft. from runway, 566 ft. left of centerline, 16:1 slope to clear

Airport Ownership and Management from official FAA records

Ownership: Publicly-owned
Owner: KY DEPT OF PARKS
2 HUDSON HOLLOW UNIT 1
FRANKFORT, KY 40601
Phone (502) 892-3367
Manager: MICHAEL RICKS, PARK MANAGER
450 LODGE ROAD
FALLS OF ROUGH, KY 40119
Phone 270-257-2311

Airport Operational Statistics

Aircraft operations: avg 25/day *
78% transient general aviation
13% local general aviation
7% military
2% air taxi
* for 12-month period ending 21 November 2016

Additional Remarks

TRANSPORTATION TO PARK LODGE AVAIL 270-257-2311.
FOR CD CTC INDIANAPOLIS ARTCC AT 317-247-2411.

Instrument Procedures

There are no published instrument procedures at 2I3.

Some nearby airports with instrument procedures:

I93 - Breckinridge County Airport (11 nm N)
M20 - Leitchfield-Grayson County Airport (17 nm SE)
KJQD - Ohio County Airport (19 nm SW)
KTEL - Perry County Municipal Airport (26 nm N)
KY8 - Hancock County Airport-Ron Lewis Field (26 nm NW)
 
Loc | Ops | Rwys | IFR | FBO | Links
Com | Nav | Svcs | Stats | Notes
Area around 2I3 (Rough River State Park Airport)
 
Road maps at: MapQuest Bing Google
 
Aerial photo
WARNING: Photo may not be current or correct
Aerial photo of 2I3 (Rough River State Park Airport)
Taken in December 2006

Do you have a better or more recent aerial photo of Rough River State Park Airport that you would like to share? If so, please send us your photo.

 
Sectional chart

 
Airport distance calculator
Flying to Rough River State Park Airport? Find the distance to fly.

From to 2I3

Sunrise and sunset
Times for 08-Dec-2019
 Local
(UTC-6)
 Zulu
(UTC)
Morning civil twilight06:2012:20
Sunrise06:4912:49
Sunset16:2622:26
Evening civil twilight16:5622:56

Current date and time
Zulu (UTC)  09-Dec-2019 01:14:39
Local (UTC-6)  08-Dec-2019 19:14:39
 
METAR
KKY8 
26nm NW 
090055Z AUTO 16007G13KT 10SM FEW047 BKN060 BKN075 14/08 A2996 RMK A01
KFTK 
30nm NE 
090056Z AUTO 14008KT 10SM FEW160 13/07 A2999 RMK AO2 SLP161 T01250068
KEKX 
31nm E 
090055Z AUTO 16007KT 10SM SCT043 BKN050 12/07 A2999 RMK AO2 T01220065
KOWB 
32nm W 
090056Z 16009KT 10SM BKN041 OVC055 13/08 A2995 RMK AO2 SLP144 T01330083
KM21 
39nm SW 
090055Z AUTO 17006KT 10SM OVC038 13/07 A2997 RMK AO2 T01330068
KBWG 
39nm S 
090053Z AUTO 17010G17KT 10SM OVC039 15/06 A3001 RMK AO2 SLP163 T01500061
KGLW 
44nm SE 
090055Z AUTO 16007KT 10SM SCT040 SCT050 OVC070 14/05 A3002 RMK AO2 T01350047
KHNB 
44nm NW 
090056Z AUTO 16008KT 10SM FEW033 SCT042 OVC049 13/08 A2995 RMK AO2 SLP145 T01330078
K2I0 
45nm W 
090055Z AUTO 18006KT 10SM OVC037 15/07 A2996 RMK AO2 T01460065
KI19 
46nm NW 
090055Z AUTO 18006KT 10SM SCT050 10/05 A3002 RMK AO2 T01010047
TAF
KFTK 
30nm NE 
081700Z 0817/0923 17009KT 9999 OVC050 WS020/20038KT QNH2995INS TEMPO 0819/0821 18015G25KT BECMG 0820/0821 18009KT 9999 BKN020 620909 QNH2990INS BECMG 0907/0908 17009KT 8000 -RA BR BKN015 620909 QNH2988INS BECMG 0917/0918 21012G20KT 8000 -DZ BR OVC009 620909 QNH2964INS TX13/0916Z TN10/0817Z
KOWB 
32nm W 
081738Z 0818/0918 20013G21KT P6SM SCT050 FM082300 18010KT P6SM BKN035 FM090600 18012G18KT 5SM -SHRA BR OVC025 FM091200 18014G22KT 3SM -SHRA BR OVC014 FM091500 20015G23KT 4SM -SHRA BR OVC010
NOTAMs
Click for the latest NOTAMs
NOTAMs are issued by the DoD/FAA and will open in a separate window not controlled by AirNav.

 

 
 

Would you like to see your business listed on this page?

 If your business provides an interesting product or service to pilots, flight crews, aircraft, or users of the Rough River State Park Airport, you should consider listing it here.  To start the listing process, click on the button below
 
Add a business
 

Other Pages about Rough River State Park Airport

Update a link
 
Copyright © AirNav, LLC. All rights reserved. Privacy Policy  Contact